sensor_id;sensor_type;location;lat;lon;timestamp;P1;durP1;ratioP1;P2;durP2;ratioP2
53521;SDS011;39398;48.382;9.802;2023-07-29T00:01:47;5.47;;;4.38;;
53521;SDS011;39398;48.382;9.802;2023-07-29T00:06:50;7.60;;;4.60;;
53521;SDS011;39398;48.382;9.802;2023-07-29T00:11:52;5.95;;;4.22;;
53521;SDS011;39398;48.382;9.802;2023-07-29T00:16:53;6.60;;;5.03;;
53521;SDS011;39398;48.382;9.802;2023-07-29T00:21:56;6.50;;;5.43;;
53521;SDS011;39398;48.382;9.802;2023-07-29T00:26:58;6.35;;;4.80;;
53521;SDS011;39398;48.382;9.802;2023-07-29T00:31:59;6.30;;;4.75;;
53521;SDS011;39398;48.382;9.802;2023-07-29T00:37:03;9.27;;;4.80;;
53521;SDS011;39398;48.382;9.802;2023-07-29T00:42:05;5.13;;;4.38;;
53521;SDS011;39398;48.382;9.802;2023-07-29T00:47:06;5.38;;;4.47;;
53521;SDS011;39398;48.382;9.802;2023-07-29T00:52:10;6.75;;;5.00;;
53521;SDS011;39398;48.382;9.802;2023-07-29T00:57:11;6.00;;;4.53;;
53521;SDS011;39398;48.382;9.802;2023-07-29T01:02:16;4.85;;;4.35;;
53521;SDS011;39398;48.382;9.802;2023-07-29T01:07:21;5.72;;;4.82;;
53521;SDS011;39398;48.382;9.802;2023-07-29T01:12:33;7.05;;;4.75;;
53521;SDS011;39398;48.382;9.802;2023-07-29T01:17:42;6.90;;;4.70;;
53521;SDS011;39398;48.382;9.802;2023-07-29T01:22:48;8.98;;;4.82;;
53521;SDS011;39398;48.382;9.802;2023-07-29T01:27:51;8.93;;;5.30;;
53521;SDS011;39398;48.382;9.802;2023-07-29T01:32:54;8.32;;;4.90;;
53521;SDS011;39398;48.382;9.802;2023-07-29T01:38:01;8.68;;;4.53;;
53521;SDS011;39398;48.382;9.802;2023-07-29T01:43:09;7.72;;;5.20;;
53521;SDS011;39398;48.382;9.802;2023-07-29T01:48:11;6.78;;;4.90;;
53521;SDS011;39398;48.382;9.802;2023-07-29T01:53:12;8.15;;;5.30;;
53521;SDS011;39398;48.382;9.802;2023-07-29T01:58:15;9.43;;;5.15;;
53521;SDS011;39398;48.382;9.802;2023-07-29T02:03:17;9.45;;;5.45;;
53521;SDS011;39398;48.382;9.802;2023-07-29T02:08:18;6.88;;;4.95;;
53521;SDS011;39398;48.382;9.802;2023-07-29T02:13:21;7.28;;;5.57;;
53521;SDS011;39398;48.382;9.802;2023-07-29T02:18:23;7.78;;;5.60;;
53521;SDS011;39398;48.382;9.802;2023-07-29T02:23:24;7.90;;;5.20;;
53521;SDS011;39398;48.382;9.802;2023-07-29T02:28:27;7.45;;;5.32;;
53521;SDS011;39398;48.382;9.802;2023-07-29T02:33:29;6.43;;;4.88;;
53521;SDS011;39398;48.382;9.802;2023-07-29T02:38:31;6.03;;;4.65;;
53521;SDS011;39398;48.382;9.802;2023-07-29T02:43:34;6.03;;;4.50;;
53521;SDS011;39398;48.382;9.802;2023-07-29T02:48:35;6.18;;;5.07;;
53521;SDS011;39398;48.382;9.802;2023-07-29T02:53:37;7.53;;;5.20;;
53521;SDS011;39398;48.382;9.802;2023-07-29T02:58:40;6.88;;;5.28;;
53521;SDS011;39398;48.382;9.802;2023-07-29T03:03:41;6.53;;;4.97;;
53521;SDS011;39398;48.382;9.802;2023-07-29T03:08:43;8.80;;;5.30;;
53521;SDS011;39398;48.382;9.802;2023-07-29T03:13:46;7.30;;;4.97;;
53521;SDS011;39398;48.382;9.802;2023-07-29T03:18:48;6.95;;;5.28;;
53521;SDS011;39398;48.382;9.802;2023-07-29T03:23:50;8.18;;;5.47;;
53521;SDS011;39398;48.382;9.802;2023-07-29T03:28:53;7.93;;;5.80;;
53521;SDS011;39398;48.382;9.802;2023-07-29T03:33:55;8.05;;;5.18;;
53521;SDS011;39398;48.382;9.802;2023-07-29T03:38:56;7.07;;;5.00;;
53521;SDS011;39398;48.382;9.802;2023-07-29T03:43:59;5.32;;;4.22;;
53521;SDS011;39398;48.382;9.802;2023-07-29T03:49:00;6.60;;;4.43;;
53521;SDS011;39398;48.382;9.802;2023-07-29T03:54:02;5.40;;;4.68;;
53521;SDS011;39398;48.382;9.802;2023-07-29T03:59:05;7.30;;;5.00;;
53521;SDS011;39398;48.382;9.802;2023-07-29T04:04:07;6.75;;;5.18;;
53521;SDS011;39398;48.382;9.802;2023-07-29T04:09:08;6.03;;;5.28;;
53521;SDS011;39398;48.382;9.802;2023-07-29T04:14:11;5.63;;;5.00;;
53521;SDS011;39398;48.382;9.802;2023-07-29T04:19:13;9.32;;;5.47;;
53521;SDS011;39398;48.382;9.802;2023-07-29T04:24:14;7.75;;;5.47;;
53521;SDS011;39398;48.382;9.802;2023-07-29T04:29:17;7.75;;;5.53;;
53521;SDS011;39398;48.382;9.802;2023-07-29T04:34:19;9.75;;;5.57;;
53521;SDS011;39398;48.382;9.802;2023-07-29T04:39:21;7.45;;;5.88;;
53521;SDS011;39398;48.382;9.802;2023-07-29T04:44:24;7.80;;;5.75;;
53521;SDS011;39398;48.382;9.802;2023-07-29T04:49:25;8.05;;;5.28;;
53521;SDS011;39398;48.382;9.802;2023-07-29T04:54:27;10.07;;;6.80;;
53521;SDS011;39398;48.382;9.802;2023-07-29T04:59:30;10.05;;;5.65;;
53521;SDS011;39398;48.382;9.802;2023-07-29T05:04:31;6.22;;;5.13;;
53521;SDS011;39398;48.382;9.802;2023-07-29T05:09:33;7.95;;;4.80;;
53521;SDS011;39398;48.382;9.802;2023-07-29T05:14:37;7.57;;;5.50;;
53521;SDS011;39398;48.382;9.802;2023-07-29T05:19:39;8.05;;;5.70;;
53521;SDS011;39398;48.382;9.802;2023-07-29T05:24:40;7.00;;;5.20;;
53521;SDS011;39398;48.382;9.802;2023-07-29T05:29:43;8.43;;;4.47;;
53521;SDS011;39398;48.382;9.802;2023-07-29T05:34:45;5.68;;;3.85;;
53521;SDS011;39398;48.382;9.802;2023-07-29T05:39:47;8.60;;;4.53;;
53521;SDS011;39398;48.382;9.802;2023-07-29T05:44:50;7.55;;;4.82;;
53521;SDS011;39398;48.382;9.802;2023-07-29T05:49:51;7.93;;;5.00;;
53521;SDS011;39398;48.382;9.802;2023-07-29T05:54:53;6.63;;;5.15;;
53521;SDS011;39398;48.382;9.802;2023-07-29T05:59:56;6.10;;;4.85;;
53521;SDS011;39398;48.382;9.802;2023-07-29T06:04:57;6.65;;;5.28;;
53521;SDS011;39398;48.382;9.802;2023-07-29T06:09:59;11.07;;;5.50;;
53521;SDS011;39398;48.382;9.802;2023-07-29T06:15:02;9.40;;;5.80;;
53521;SDS011;39398;48.382;9.802;2023-07-29T06:20:04;7.45;;;5.93;;
53521;SDS011;39398;48.382;9.802;2023-07-29T06:25:07;7.50;;;5.30;;
53521;SDS011;39398;48.382;9.802;2023-07-29T06:30:10;7.32;;;5.43;;
53521;SDS011;39398;48.382;9.802;2023-07-29T06:35:12;6.22;;;4.70;;
53521;SDS011;39398;48.382;9.802;2023-07-29T06:40:13;6.28;;;4.00;;
53521;SDS011;39398;48.382;9.802;2023-07-29T06:45:17;7.95;;;4.82;;
53521;SDS011;39398;48.382;9.802;2023-07-29T06:50:18;7.05;;;5.30;;
53521;SDS011;39398;48.382;9.802;2023-07-29T06:55:20;7.47;;;5.72;;
53521;SDS011;39398;48.382;9.802;2023-07-29T07:00:23;5.95;;;4.50;;
53521;SDS011;39398;48.382;9.802;2023-07-29T07:05:24;6.15;;;4.50;;
53521;SDS011;39398;48.382;9.802;2023-07-29T07:10:26;5.80;;;4.32;;
53521;SDS011;39398;48.382;9.802;2023-07-29T07:15:29;7.18;;;4.22;;
53521;SDS011;39398;48.382;9.802;2023-07-29T07:20:30;4.15;;;3.47;;
53521;SDS011;39398;48.382;9.802;2023-07-29T07:25:32;7.03;;;3.97;;
53521;SDS011;39398;48.382;9.802;2023-07-29T07:30:35;6.43;;;3.80;;
53521;SDS011;39398;48.382;9.802;2023-07-29T07:35:40;4.27;;;3.80;;
53521;SDS011;39398;48.382;9.802;2023-07-29T07:40:42;7.13;;;5.15;;
53521;SDS011;39398;48.382;9.802;2023-07-29T07:45:45;5.13;;;4.45;;
53521;SDS011;39398;48.382;9.802;2023-07-29T07:50:47;6.95;;;5.38;;
53521;SDS011;39398;48.382;9.802;2023-07-29T07:55:48;7.20;;;5.10;;
53521;SDS011;39398;48.382;9.802;2023-07-29T08:00:51;6.30;;;5.43;;
53521;SDS011;39398;48.382;9.802;2023-07-29T08:05:53;4.85;;;4.35;;
53521;SDS011;39398;48.382;9.802;2023-07-29T08:10:56;6.00;;;4.75;;
53521;SDS011;39398;48.382;9.802;2023-07-29T08:15:59;5.90;;;4.78;;
53521;SDS011;39398;48.382;9.802;2023-07-29T08:21:01;8.25;;;5.50;;
53521;SDS011;39398;48.382;9.802;2023-07-29T08:26:03;5.85;;;4.53;;
53521;SDS011;39398;48.382;9.802;2023-07-29T08:31:07;7.30;;;4.30;;
53521;SDS011;39398;48.382;9.802;2023-07-29T08:36:09;6.28;;;4.60;;
53521;SDS011;39398;48.382;9.802;2023-07-29T08:41:13;8.82;;;4.97;;
53521;SDS011;39398;48.382;9.802;2023-07-29T08:46:22;11.35;;;5.30;;
53521;SDS011;39398;48.382;9.802;2023-07-29T08:51:24;5.93;;;3.63;;
53521;SDS011;39398;48.382;9.802;2023-07-29T08:56:28;6.43;;;2.90;;
53521;SDS011;39398;48.382;9.802;2023-07-29T09:01:31;8.05;;;6.28;;
53521;SDS011;39398;48.382;9.802;2023-07-29T09:06:33;3.50;;;2.63;;
53521;SDS011;39398;48.382;9.802;2023-07-29T09:11:36;3.20;;;2.50;;
53521;SDS011;39398;48.382;9.802;2023-07-29T09:16:39;3.15;;;2.38;;
53521;SDS011;39398;48.382;9.802;2023-07-29T09:21:42;2.75;;;2.08;;
53521;SDS011;39398;48.382;9.802;2023-07-29T09:26:48;3.03;;;2.00;;
53521;SDS011;39398;48.382;9.802;2023-07-29T09:31:51;2.63;;;2.20;;
53521;SDS011;39398;48.382;9.802;2023-07-29T09:36:53;2.97;;;2.10;;
53521;SDS011;39398;48.382;9.802;2023-07-29T09:41:54;3.42;;;2.30;;
53521;SDS011;39398;48.382;9.802;2023-07-29T09:46:57;4.80;;;2.15;;
53521;SDS011;39398;48.382;9.802;2023-07-29T09:51:59;2.85;;;2.10;;
53521;SDS011;39398;48.382;9.802;2023-07-29T09:57:01;3.70;;;2.40;;
53521;SDS011;39398;48.382;9.802;2023-07-29T10:02:05;6.78;;;4.45;;
53521;SDS011;39398;48.382;9.802;2023-07-29T10:07:14;3.72;;;2.20;;
53521;SDS011;39398;48.382;9.802;2023-07-29T10:12:16;4.40;;;2.60;;
53521;SDS011;39398;48.382;9.802;2023-07-29T10:17:21;2.78;;;2.50;;
53521;SDS011;39398;48.382;9.802;2023-07-29T10:22:24;3.15;;;2.25;;
53521;SDS011;39398;48.382;9.802;2023-07-29T10:27:28;3.30;;;2.40;;
53521;SDS011;39398;48.382;9.802;2023-07-29T10:32:36;5.90;;;3.08;;
53521;SDS011;39398;48.382;9.802;2023-07-29T10:37:39;5.55;;;3.92;;
53521;SDS011;39398;48.382;9.802;2023-07-29T10:42:58;3.50;;;3.05;;
53521;SDS011;39398;48.382;9.802;2023-07-29T10:48:05;2.67;;;2.10;;
53521;SDS011;39398;48.382;9.802;2023-07-29T10:53:07;3.55;;;2.38;;
53521;SDS011;39398;48.382;9.802;2023-07-29T10:58:12;2.60;;;2.40;;
53521;SDS011;39398;48.382;9.802;2023-07-29T11:03:15;5.82;;;2.20;;
53521;SDS011;39398;48.382;9.802;2023-07-29T11:08:18;2.97;;;2.50;;
53521;SDS011;39398;48.382;9.802;2023-07-29T11:13:21;6.38;;;4.15;;
53521;SDS011;39398;48.382;9.802;2023-07-29T11:18:24;2.88;;;2.45;;
53521;SDS011;39398;48.382;9.802;2023-07-29T11:23:29;5.00;;;2.85;;
53521;SDS011;39398;48.382;9.802;2023-07-29T11:28:37;2.80;;;2.53;;
53521;SDS011;39398;48.382;9.802;2023-07-29T11:38:42;2.13;;;1.98;;
53521;SDS011;39398;48.382;9.802;2023-07-29T11:43:44;2.95;;;1.90;;
53521;SDS011;39398;48.382;9.802;2023-07-29T11:48:47;3.78;;;2.30;;
53521;SDS011;39398;48.382;9.802;2023-07-29T11:53:49;2.38;;;1.90;;
53521;SDS011;39398;48.382;9.802;2023-07-29T11:58:51;3.10;;;2.38;;
53521;SDS011;39398;48.382;9.802;2023-07-29T12:03:56;1.88;;;1.70;;
53521;SDS011;39398;48.382;9.802;2023-07-29T12:08:58;2.85;;;1.88;;
53521;SDS011;39398;48.382;9.802;2023-07-29T12:14:01;2.72;;;1.90;;
53521;SDS011;39398;48.382;9.802;2023-07-29T12:19:04;3.63;;;2.47;;
53521;SDS011;39398;48.382;9.802;2023-07-29T12:24:05;2.40;;;2.20;;
53521;SDS011;39398;48.382;9.802;2023-07-29T12:29:11;3.03;;;2.17;;
53521;SDS011;39398;48.382;9.802;2023-07-29T12:34:18;2.90;;;2.30;;
53521;SDS011;39398;48.382;9.802;2023-07-29T12:39:20;2.95;;;2.00;;
53521;SDS011;39398;48.382;9.802;2023-07-29T12:45:10;1.70;;;1.60;;
53521;SDS011;39398;48.382;9.802;2023-07-29T12:50:12;3.42;;;1.83;;
53521;SDS011;39398;48.382;9.802;2023-07-29T12:55:14;2.13;;;1.83;;
53521;SDS011;39398;48.382;9.802;2023-07-29T13:00:17;2.33;;;2.13;;
53521;SDS011;39398;48.382;9.802;2023-07-29T13:05:19;3.10;;;2.15;;
53521;SDS011;39398;48.382;9.802;2023-07-29T13:12:40;2.13;;;1.90;;
53521;SDS011;39398;48.382;9.802;2023-07-29T13:17:41;2.90;;;1.92;;
53521;SDS011;39398;48.382;9.802;2023-07-29T13:18:52;2.33;;;2.13;;
53521;SDS011;39398;48.382;9.802;2023-07-29T13:19:24;2.97;;;2.10;;
53521;SDS011;39398;48.382;9.802;2023-07-29T13:19:55;2.75;;;2.10;;
53521;SDS011;39398;48.382;9.802;2023-07-29T13:20:26;2.40;;;1.70;;
53521;SDS011;39398;48.382;9.802;2023-07-29T13:20:58;2.53;;;2.33;;
53521;SDS011;39398;48.382;9.802;2023-07-29T13:22:06;5.32;;;2.00;;
53521;SDS011;39398;48.382;9.802;2023-07-29T13:22:38;2.55;;;2.33;;
53521;SDS011;39398;48.382;9.802;2023-07-29T13:23:09;2.35;;;2.15;;
53521;SDS011;39398;48.382;9.802;2023-07-29T13:23:41;2.10;;;2.00;;
53521;SDS011;39398;48.382;9.802;2023-07-29T13:24:12;2.47;;;2.17;;
53521;SDS011;39398;48.382;9.802;2023-07-29T13:24:44;3.13;;;2.20;;
53521;SDS011;39398;48.382;9.802;2023-07-29T13:25:40;1.95;;;1.85;;
53521;SDS011;39398;48.382;9.802;2023-07-29T13:26:11;2.00;;;1.90;;
53521;SDS011;39398;48.382;9.802;2023-07-29T13:26:43;2.20;;;2.00;;
53521;SDS011;39398;48.382;9.802;2023-07-29T13:27:14;2.10;;;1.90;;
53521;SDS011;39398;48.382;9.802;2023-07-29T13:27:45;2.70;;;2.13;;
53521;SDS011;39398;48.382;9.802;2023-07-29T13:28:16;2.25;;;2.00;;
53521;SDS011;39398;48.382;9.802;2023-07-29T13:28:48;2.53;;;2.30;;
53521;SDS011;39398;48.382;9.802;2023-07-29T13:29:19;5.32;;;2.20;;
53521;SDS011;39398;48.382;9.802;2023-07-29T13:29:50;5.45;;;2.15;;
53521;SDS011;39398;48.382;9.802;2023-07-29T13:30:22;2.13;;;1.92;;
53521;SDS011;39398;48.382;9.802;2023-07-29T13:30:53;3.50;;;2.10;;
53521;SDS011;39398;48.382;9.802;2023-07-29T13:31:25;2.35;;;1.98;;
53521;SDS011;39398;48.382;9.802;2023-07-29T13:31:56;2.50;;;2.30;;
53521;SDS011;39398;48.382;9.802;2023-07-29T13:32:45;2.30;;;1.90;;
53521;SDS011;39398;48.382;9.802;2023-07-29T13:33:17;2.40;;;2.20;;
53521;SDS011;39398;48.382;9.802;2023-07-29T13:33:49;2.58;;;2.08;;
53521;SDS011;39398;48.382;9.802;2023-07-29T13:34:20;2.25;;;1.98;;
53521;SDS011;39398;48.382;9.802;2023-07-29T13:34:52;2.65;;;2.00;;
53521;SDS011;39398;48.382;9.802;2023-07-29T13:35:40;1.88;;;1.77;;
53521;SDS011;39398;48.382;9.802;2023-07-29T13:41:18;2.08;;;1.60;;
53521;SDS011;39398;48.382;9.802;2023-07-29T13:46:19;2.00;;;1.80;;
53521;SDS011;39398;48.382;9.802;2023-07-29T13:51:21;5.15;;;1.95;;
53521;SDS011;39398;48.382;9.802;2023-07-29T13:56:24;7.53;;;3.05;;
53521;SDS011;39398;48.382;9.802;2023-07-29T14:01:25;2.55;;;1.70;;
53521;SDS011;39398;48.382;9.802;2023-07-29T14:06:26;2.17;;;1.98;;
53521;SDS011;39398;48.382;9.802;2023-07-29T14:11:46;3.60;;;2.45;;
53521;SDS011;39398;48.382;9.802;2023-07-29T14:16:47;1.98;;;1.83;;
53521;SDS011;39398;48.382;9.802;2023-07-29T14:21:48;1.92;;;1.65;;
53521;SDS011;39398;48.382;9.802;2023-07-29T14:26:51;3.67;;;2.20;;
53521;SDS011;39398;48.382;9.802;2023-07-29T14:37:46;1.90;;;1.80;;
53521;SDS011;39398;48.382;9.802;2023-07-29T14:42:47;4.32;;;1.90;;
53521;SDS011;39398;48.382;9.802;2023-07-29T14:47:49;2.95;;;2.05;;
53521;SDS011;39398;48.382;9.802;2023-07-29T14:55:16;2.28;;;2.08;;
53521;SDS011;39398;48.382;9.802;2023-07-29T15:00:17;3.42;;;1.73;;
53521;SDS011;39398;48.382;9.802;2023-07-29T15:07:39;2.40;;;2.20;;
53521;SDS011;39398;48.382;9.802;2023-07-29T15:12:41;3.15;;;2.00;;
53521;SDS011;39398;48.382;9.802;2023-07-29T15:17:42;2.17;;;1.95;;
53521;SDS011;39398;48.382;9.802;2023-07-29T15:22:45;3.70;;;2.08;;
53521;SDS011;39398;48.382;9.802;2023-07-29T15:27:47;3.97;;;2.58;;
53521;SDS011;39398;48.382;9.802;2023-07-29T15:32:48;2.20;;;1.95;;
53521;SDS011;39398;48.382;9.802;2023-07-29T15:37:51;4.15;;;2.40;;
53521;SDS011;39398;48.382;9.802;2023-07-29T15:42:52;4.00;;;2.53;;
53521;SDS011;39398;48.382;9.802;2023-07-29T15:47:54;2.55;;;2.13;;
53521;SDS011;39398;48.382;9.802;2023-07-29T15:52:56;4.43;;;2.53;;
53521;SDS011;39398;48.382;9.802;2023-07-29T15:57:58;2.60;;;2.40;;
53521;SDS011;39398;48.382;9.802;2023-07-29T16:02:59;2.30;;;2.10;;
53521;SDS011;39398;48.382;9.802;2023-07-29T16:08:02;2.42;;;2.22;;
53521;SDS011;39398;48.382;9.802;2023-07-29T16:13:04;3.58;;;2.03;;
53521;SDS011;39398;48.382;9.802;2023-07-29T16:18:05;2.40;;;1.80;;
53521;SDS011;39398;48.382;9.802;2023-07-29T16:23:08;4.55;;;2.15;;
53521;SDS011;39398;48.382;9.802;2023-07-29T16:28:10;4.20;;;2.28;;
53521;SDS011;39398;48.382;9.802;2023-07-29T16:33:12;2.25;;;1.85;;
53521;SDS011;39398;48.382;9.802;2023-07-29T16:38:15;2.10;;;1.90;;
53521;SDS011;39398;48.382;9.802;2023-07-29T16:43:16;3.67;;;2.13;;
53521;SDS011;39398;48.382;9.802;2023-07-29T16:48:17;3.00;;;2.00;;
53521;SDS011;39398;48.382;9.802;2023-07-29T16:53:20;8.30;;;6.10;;
53521;SDS011;39398;48.382;9.802;2023-07-29T16:58:22;4.30;;;2.83;;
53521;SDS011;39398;48.382;9.802;2023-07-29T17:03:23;3.95;;;2.30;;
53521;SDS011;39398;48.382;9.802;2023-07-29T17:08:26;3.80;;;2.88;;
53521;SDS011;39398;48.382;9.802;2023-07-29T17:13:27;3.55;;;2.85;;
53521;SDS011;39398;48.382;9.802;2023-07-29T17:18:29;3.25;;;2.70;;
53521;SDS011;39398;48.382;9.802;2023-07-29T17:23:31;4.60;;;2.55;;
53521;SDS011;39398;48.382;9.802;2023-07-29T17:28:33;3.72;;;2.72;;
53521;SDS011;39398;48.382;9.802;2023-07-29T17:33:34;6.32;;;2.38;;
53521;SDS011;39398;48.382;9.802;2023-07-29T17:38:37;3.15;;;2.70;;
53521;SDS011;39398;48.382;9.802;2023-07-29T17:43:39;4.53;;;3.20;;
53521;SDS011;39398;48.382;9.802;2023-07-29T17:48:40;4.72;;;2.92;;
53521;SDS011;39398;48.382;9.802;2023-07-29T17:53:43;3.03;;;2.75;;
53521;SDS011;39398;48.382;9.802;2023-07-29T17:58:44;2.97;;;2.78;;
53521;SDS011;39398;48.382;9.802;2023-07-29T18:03:46;4.15;;;2.70;;
53521;SDS011;39398;48.382;9.802;2023-07-29T18:08:48;4.15;;;3.10;;
53521;SDS011;39398;48.382;9.802;2023-07-29T18:13:50;5.28;;;2.97;;
53521;SDS011;39398;48.382;9.802;2023-07-29T18:18:51;4.70;;;3.17;;
53521;SDS011;39398;48.382;9.802;2023-07-29T18:23:54;6.07;;;4.25;;
53521;SDS011;39398;48.382;9.802;2023-07-29T18:28:55;6.78;;;3.30;;
53521;SDS011;39398;48.382;9.802;2023-07-29T18:34:00;3.38;;;2.97;;
53521;SDS011;39398;48.382;9.802;2023-07-29T18:39:02;5.82;;;3.17;;
53521;SDS011;39398;48.382;9.802;2023-07-29T18:44:04;6.80;;;4.05;;
53521;SDS011;39398;48.382;9.802;2023-07-29T18:49:05;4.35;;;3.58;;
53521;SDS011;39398;48.382;9.802;2023-07-29T18:54:08;5.97;;;3.83;;
53521;SDS011;39398;48.382;9.802;2023-07-29T18:59:09;8.15;;;4.18;;
53521;SDS011;39398;48.382;9.802;2023-07-29T19:04:11;5.60;;;3.75;;
53521;SDS011;39398;48.382;9.802;2023-07-29T19:09:13;6.32;;;4.50;;
53521;SDS011;39398;48.382;9.802;2023-07-29T19:14:15;5.47;;;4.20;;
53521;SDS011;39398;48.382;9.802;2023-07-29T19:19:16;10.35;;;4.55;;
53521;SDS011;39398;48.382;9.802;2023-07-29T19:24:19;6.80;;;4.60;;
53521;SDS011;39398;48.382;9.802;2023-07-29T19:29:20;5.32;;;4.57;;
53521;SDS011;39398;48.382;9.802;2023-07-29T19:34:22;4.80;;;4.22;;
53521;SDS011;39398;48.382;9.802;2023-07-29T19:39:24;5.65;;;4.93;;
53521;SDS011;39398;48.382;9.802;2023-07-29T19:44:26;6.45;;;4.45;;
53521;SDS011;39398;48.382;9.802;2023-07-29T19:49:27;7.75;;;5.03;;
53521;SDS011;39398;48.382;9.802;2023-07-29T19:54:47;6.82;;;4.40;;
53521;SDS011;39398;48.382;9.802;2023-07-29T19:59:48;5.25;;;4.22;;
53521;SDS011;39398;48.382;9.802;2023-07-29T20:04:50;6.95;;;4.55;;
53521;SDS011;39398;48.382;9.802;2023-07-29T20:09:52;6.35;;;4.35;;
53521;SDS011;39398;48.382;9.802;2023-07-29T20:14:54;5.05;;;4.28;;
53521;SDS011;39398;48.382;9.802;2023-07-29T20:19:55;7.03;;;4.65;;
53521;SDS011;39398;48.382;9.802;2023-07-29T20:24:58;5.13;;;4.00;;
53521;SDS011;39398;48.382;9.802;2023-07-29T20:34:09;5.07;;;4.15;;
53521;SDS011;39398;48.382;9.802;2023-07-29T20:39:11;8.27;;;4.82;;
53521;SDS011;39398;48.382;9.802;2023-07-29T20:44:12;7.35;;;4.95;;
53521;SDS011;39398;48.382;9.802;2023-07-29T20:49:15;7.40;;;5.20;;
53521;SDS011;39398;48.382;9.802;2023-07-29T20:54:17;6.70;;;4.95;;
53521;SDS011;39398;48.382;9.802;2023-07-29T20:59:19;5.70;;;4.88;;
53521;SDS011;39398;48.382;9.802;2023-07-29T21:04:22;7.53;;;5.30;;
53521;SDS011;39398;48.382;9.802;2023-07-29T21:09:23;9.43;;;5.07;;
53521;SDS011;39398;48.382;9.802;2023-07-29T21:14:25;6.70;;;5.45;;
53521;SDS011;39398;48.382;9.802;2023-07-29T21:19:28;5.78;;;4.65;;
53521;SDS011;39398;48.382;9.802;2023-07-29T21:24:30;7.20;;;5.00;;
53521;SDS011;39398;48.382;9.802;2023-07-29T21:29:31;5.68;;;4.72;;
53521;SDS011;39398;48.382;9.802;2023-07-29T21:34:34;6.65;;;5.30;;
53521;SDS011;39398;48.382;9.802;2023-07-29T21:39:36;6.95;;;5.35;;
53521;SDS011;39398;48.382;9.802;2023-07-29T21:44:37;5.07;;;4.57;;
53521;SDS011;39398;48.382;9.802;2023-07-29T21:49:40;6.82;;;5.13;;
53521;SDS011;39398;48.382;9.802;2023-07-29T21:54:42;6.57;;;4.70;;
53521;SDS011;39398;48.382;9.802;2023-07-29T21:59:44;5.55;;;4.90;;
53521;SDS011;39398;48.382;9.802;2023-07-29T22:04:47;7.00;;;5.60;;
53521;SDS011;39398;48.382;9.802;2023-07-29T22:09:48;6.10;;;5.20;;
53521;SDS011;39398;48.382;9.802;2023-07-29T22:14:50;9.48;;;6.32;;
53521;SDS011;39398;48.382;9.802;2023-07-29T22:20:16;7.40;;;5.53;;
53521;SDS011;39398;48.382;9.802;2023-07-29T22:25:17;5.35;;;4.50;;
53521;SDS011;39398;48.382;9.802;2023-07-29T22:30:18;6.20;;;4.95;;
53521;SDS011;39398;48.382;9.802;2023-07-29T22:35:21;6.05;;;5.28;;
53521;SDS011;39398;48.382;9.802;2023-07-29T22:40:23;7.03;;;5.07;;
53521;SDS011;39398;48.382;9.802;2023-07-29T22:45:24;5.63;;;4.63;;
53521;SDS011;39398;48.382;9.802;2023-07-29T22:50:27;5.13;;;4.60;;
53521;SDS011;39398;48.382;9.802;2023-07-29T22:55:28;5.10;;;4.40;;
53521;SDS011;39398;48.382;9.802;2023-07-29T23:00:29;6.30;;;4.28;;
53521;SDS011;39398;48.382;9.802;2023-07-29T23:05:32;5.55;;;4.03;;
53521;SDS011;39398;48.382;9.802;2023-07-29T23:10:34;5.43;;;3.97;;
53521;SDS011;39398;48.382;9.802;2023-07-29T23:15:35;6.88;;;4.15;;
53521;SDS011;39398;48.382;9.802;2023-07-29T23:20:39;5.25;;;3.88;;
53521;SDS011;39398;48.382;9.802;2023-07-29T23:25:40;5.38;;;4.30;;
53521;SDS011;39398;48.382;9.802;2023-07-29T23:30:42;4.95;;;4.03;;
53521;SDS011;39398;48.382;9.802;2023-07-29T23:35:44;8.07;;;4.28;;
53521;SDS011;39398;48.382;9.802;2023-07-29T23:40:46;5.65;;;4.32;;
53521;SDS011;39398;48.382;9.802;2023-07-29T23:45:47;5.03;;;4.15;;
53521;SDS011;39398;48.382;9.802;2023-07-29T23:50:53;5.65;;;4.15;;
53521;SDS011;39398;48.382;9.802;2023-07-29T23:55:54;6.82;;;4.43;;
